createdAt,value
2019-03-04T00:02:15.693Z,3.63
2019-03-04T00:04:46.395Z,4.20
2019-03-04T00:07:17.947Z,4.07
2019-03-04T00:09:49.630Z,4.07
2019-03-04T00:12:19.928Z,4.00
2019-03-04T00:14:51.909Z,4.10
2019-03-04T00:17:23.244Z,3.60
2019-03-04T00:19:53.778Z,4.20
2019-03-04T00:22:24.979Z,4.47
2019-03-04T00:24:55.467Z,4.00
2019-03-04T00:27:26.808Z,3.60
2019-03-04T00:29:58.165Z,3.90
2019-03-04T00:32:28.693Z,4.33
2019-03-04T00:34:59.021Z,3.80
2019-03-04T00:37:29.448Z,3.73
2019-03-04T00:39:59.720Z,4.47
2019-03-04T00:42:30.953Z,4.10
2019-03-04T00:45:01.359Z,4.40
2019-03-04T00:47:33.634Z,3.97
2019-03-04T00:50:06.171Z,4.00
2019-03-04T00:52:37.361Z,3.63
2019-03-04T00:55:08.205Z,3.80
2019-03-04T00:57:39.590Z,4.13
2019-03-04T01:00:17.152Z,3.87
2019-03-04T01:02:47.838Z,3.87
2019-03-04T01:05:18.625Z,4.47
2019-03-04T01:07:49.156Z,3.70
2019-03-04T01:10:19.592Z,4.07
2019-03-04T01:12:50.023Z,3.60
2019-03-04T01:15:24.256Z,3.30
2019-03-04T01:17:54.643Z,3.63
2019-03-04T01:20:26.223Z,3.40
2019-03-04T01:22:56.943Z,3.20
2019-03-04T01:25:27.467Z,3.33
2019-03-04T01:27:57.987Z,3.90
2019-03-04T01:30:30.005Z,3.13
2019-03-04T01:33:01.555Z,3.67
2019-03-04T01:35:31.876Z,3.20
2019-03-04T01:38:02.411Z,3.50
2019-03-04T01:40:32.962Z,3.00
2019-03-04T01:43:05.114Z,3.60
2019-03-04T01:45:36.770Z,3.20
2019-03-04T01:48:07.100Z,3.10
2019-03-04T01:50:38.478Z,3.43
2019-03-04T01:53:08.824Z,3.40
2019-03-04T01:55:41.976Z,3.30
2019-03-04T01:58:13.431Z,3.77
2019-03-04T02:00:44.985Z,3.43
2019-03-04T02:03:15.292Z,3.83
2019-03-04T02:05:46.564Z,3.70
2019-03-04T02:08:18.634Z,3.17
2019-03-04T02:10:51.705Z,3.40
2019-03-04T02:13:22.166Z,4.10
2019-03-04T02:15:53.539Z,3.30
2019-03-04T02:18:25.608Z,3.70
2019-03-04T02:20:55.903Z,4.03
2019-03-04T02:23:26.326Z,4.10
2019-03-04T02:26:29.635Z,3.50
2019-03-04T02:29:00.353Z,3.80
2019-03-04T02:31:30.763Z,3.90
2019-03-04T02:34:01.524Z,3.63
2019-03-04T02:36:31.851Z,3.67
2019-03-04T02:39:04.324Z,3.63
2019-03-04T02:41:34.445Z,4.27
2019-03-04T02:44:06.929Z,3.83
2019-03-04T02:46:38.953Z,4.40
2019-03-04T02:49:09.217Z,3.80
2019-03-04T02:51:39.991Z,3.97
2019-03-04T02:54:11.533Z,4.43
2019-03-04T02:56:42.756Z,4.30
2019-03-04T02:59:13.191Z,3.67
2019-03-04T03:01:43.457Z,3.83
2019-03-04T03:04:14.899Z,3.90
2019-03-04T03:06:45.306Z,4.50
2019-03-04T03:09:16.612Z,3.30
2019-03-04T03:11:47.105Z,3.50
2019-03-04T03:14:17.416Z,3.97
2019-03-04T03:16:47.889Z,3.13
2019-03-04T03:19:18.799Z,3.83
2019-03-04T03:21:49.178Z,3.97
2019-03-04T03:24:19.572Z,3.90
2019-03-04T03:26:50.092Z,3.57
2019-03-04T03:29:20.547Z,3.80
2019-03-04T03:31:50.951Z,3.20
2019-03-04T03:34:21.653Z,3.43
2019-03-04T03:36:53.439Z,3.53
2019-03-04T03:39:24.908Z,3.80
2019-03-04T03:41:56.130Z,3.10
2019-03-04T03:44:27.401Z,4.00
2019-03-04T03:47:00.292Z,4.40
2019-03-04T03:49:30.720Z,3.53
2019-03-04T03:52:03.299Z,3.27
2019-03-04T03:54:34.826Z,3.80
2019-03-04T03:57:06.930Z,3.70
2019-03-04T03:59:39.906Z,3.80
2019-03-04T04:02:11.742Z,3.07
2019-03-04T04:04:42.105Z,3.00
2019-03-04T04:07:15.195Z,3.00
2019-03-04T04:09:46.324Z,2.87
2019-03-04T04:12:17.060Z,3.57
2019-03-04T04:14:48.951Z,3.30
2019-03-04T04:17:20.186Z,3.30
2019-03-04T04:19:52.903Z,3.10
2019-03-04T04:22:22.909Z,2.77
2019-03-04T04:24:56.398Z,2.77
2019-03-04T04:27:26.814Z,2.73
2019-03-04T04:29:58.800Z,3.00
2019-03-04T04:32:30.151Z,2.40
2019-03-04T04:35:02.319Z,2.67
2019-03-04T04:37:33.479Z,3.50
2019-03-04T04:40:05.290Z,2.73
2019-03-04T04:42:35.676Z,2.97
2019-03-04T04:45:06.407Z,2.70
2019-03-04T04:47:38.770Z,2.47
2019-03-04T04:50:11.931Z,2.87
2019-03-04T04:52:42.579Z,2.77
2019-03-04T04:55:12.927Z,2.87
2019-03-04T04:57:47.516Z,2.60
2019-03-04T05:00:20.545Z,2.77
2019-03-04T05:02:51.286Z,3.20
2019-03-04T05:05:24.312Z,2.40
2019-03-04T05:07:55.316Z,3.63
2019-03-04T05:10:25.836Z,2.23
2019-03-04T05:12:57.818Z,2.40
2019-03-04T05:15:29.612Z,2.30
2019-03-04T05:18:00.446Z,2.40
2019-03-04T05:20:30.818Z,2.23
2019-03-04T05:23:03.223Z,2.13
2019-03-04T05:25:33.688Z,2.87
2019-03-04T05:28:04.065Z,2.20
2019-03-04T05:30:34.534Z,2.07
2019-03-04T05:33:06.794Z,2.10
2019-03-04T05:35:38.243Z,2.07
2019-03-04T05:38:10.232Z,2.00
2019-03-04T05:40:40.700Z,2.20
2019-03-04T05:43:11.235Z,1.90
2019-03-04T05:45:41.768Z,1.90
2019-03-04T05:48:13.365Z,2.33
2019-03-04T05:50:45.664Z,2.07
2019-03-04T05:53:17.795Z,1.40
2019-03-04T05:55:48.082Z,1.90
2019-03-04T05:58:20.307Z,1.67
2019-03-04T06:01:22.268Z,1.37
2019-03-04T06:03:54.731Z,1.73
2019-03-04T06:06:43.079Z,1.73
2019-03-04T06:09:15.241Z,1.50
2019-03-04T06:11:45.773Z,1.70
2019-03-04T06:14:16.426Z,1.60
2019-03-04T06:16:49.772Z,2.07
2019-03-04T06:19:21.270Z,1.53
2019-03-04T06:21:51.798Z,1.60
2019-03-04T06:24:22.226Z,1.50
2019-03-04T06:26:54.705Z,1.97
2019-03-04T06:29:27.510Z,1.77
2019-03-04T06:31:59.658Z,1.77
2019-03-04T06:34:30.194Z,1.73
2019-03-04T06:37:00.519Z,1.87
2019-03-04T06:39:31.260Z,1.77
2019-03-04T06:42:02.613Z,2.17
2019-03-04T06:44:33.247Z,1.30
2019-03-04T06:47:05.519Z,1.97
2019-03-04T06:49:38.580Z,1.77
2019-03-04T06:52:08.876Z,1.37
2019-03-04T06:55:27.195Z,1.40
2019-03-04T06:57:57.941Z,1.20
2019-03-04T07:01:02.201Z,1.60
2019-03-04T07:03:42.854Z,1.70
2019-03-04T07:06:14.839Z,1.80
2019-03-04T07:09:16.969Z,1.70
2019-03-04T07:11:49.117Z,1.70
2019-03-04T07:14:20.814Z,1.50
2019-03-04T07:16:52.922Z,1.50
2019-03-04T07:19:33.550Z,1.27
2019-03-04T07:22:03.956Z,1.97
2019-03-04T07:24:53.654Z,1.83
2019-03-04T07:27:24.921Z,1.63
2019-03-04T07:29:55.359Z,1.50
2019-03-04T07:32:25.436Z,1.20
2019-03-04T07:34:55.588Z,1.70
2019-03-04T07:37:25.993Z,1.30
2019-03-04T07:39:56.403Z,1.60
2019-03-04T07:42:31.269Z,1.77
2019-03-04T07:45:01.944Z,1.60
2019-03-04T07:47:32.202Z,1.67
2019-03-04T07:50:03.781Z,1.50
2019-03-04T07:52:36.069Z,1.53
2019-03-04T07:55:06.390Z,1.47
2019-03-04T07:57:38.564Z,1.77
2019-03-04T08:00:09.463Z,1.37
2019-03-04T08:02:41.167Z,1.33
2019-03-04T08:05:11.902Z,1.70
2019-03-04T08:07:48.937Z,1.60
2019-03-04T08:11:02.607Z,1.70
2019-03-04T08:13:48.502Z,1.80
2019-03-04T08:16:18.929Z,1.90
2019-03-04T08:18:49.355Z,1.80
2019-03-04T08:21:20.090Z,1.60
2019-03-04T08:23:51.434Z,1.70
2019-03-04T08:26:23.607Z,1.60
2019-03-04T08:28:54.241Z,1.50
2019-03-04T08:31:24.671Z,1.70
2019-03-04T08:33:56.339Z,1.77
2019-03-04T08:36:26.763Z,1.30
2019-03-04T08:38:57.196Z,2.40
2019-03-04T08:41:27.419Z,1.50
2019-03-04T08:43:57.752Z,1.27
2019-03-04T08:46:28.179Z,1.17
2019-03-04T08:48:59.374Z,1.10
2019-03-04T08:51:30.883Z,0.60
2019-03-04T08:54:02.171Z,0.73
2019-03-04T08:56:32.498Z,0.93
2019-03-04T08:59:04.429Z,0.80
2019-03-04T09:01:35.852Z,0.80
2019-03-04T09:04:06.618Z,0.87
2019-03-04T09:06:39.198Z,0.97
2019-03-04T09:09:10.654Z,0.83
2019-03-04T09:11:41.055Z,1.03
2019-03-04T09:14:11.724Z,0.40
2019-03-04T09:16:43.625Z,0.60
2019-03-04T09:19:15.071Z,0.93
2019-03-04T09:21:45.468Z,0.60
2019-03-04T09:24:15.797Z,0.57
2019-03-04T09:26:46.286Z,0.70
2019-03-04T09:29:16.749Z,1.13
2019-03-04T09:31:47.284Z,0.50
2019-03-04T09:34:17.621Z,0.67
2019-03-04T09:36:49.690Z,0.70
2019-03-04T09:39:21.287Z,0.57
2019-03-04T09:41:56.513Z,0.70
2019-03-04T09:44:26.791Z,0.70
2019-03-04T09:46:58.924Z,0.80
2019-03-04T09:49:29.173Z,1.03
2019-03-04T09:52:01.215Z,0.90
2019-03-04T09:54:33.353Z,0.70
2019-03-04T09:57:04.500Z,0.70
2019-03-04T09:59:37.177Z,1.67
2019-03-04T10:02:19.479Z,1.33
2019-03-04T10:05:41.182Z,2.27
2019-03-04T10:09:04.834Z,0.97
2019-03-04T10:12:57.430Z,1.30
2019-03-04T10:16:04.600Z,0.80
2019-03-04T10:19:09.541Z,0.90
2019-03-04T10:22:11.276Z,1.00
2019-03-04T10:25:38.704Z,0.90
2019-03-04T10:29:03.871Z,1.37
2019-03-04T10:32:39.957Z,1.00
2019-03-04T10:36:18.896Z,1.10
2019-03-04T10:39:35.629Z,0.93
2019-03-04T10:42:45.918Z,1.10
2019-03-04T10:45:59.436Z,1.00
2019-03-04T10:48:30.822Z,1.27
2019-03-04T10:51:02.145Z,0.80
2019-03-04T10:53:32.368Z,2.00
2019-03-04T10:56:04.117Z,0.93
2019-03-04T10:58:34.806Z,0.77
2019-03-04T11:01:06.452Z,1.40
2019-03-04T11:03:36.644Z,1.37
2019-03-04T11:06:09.326Z,0.90
2019-03-04T11:08:40.371Z,0.80
2019-03-04T11:11:13.027Z,0.93
2019-03-04T11:13:43.943Z,0.83
2019-03-04T11:16:14.636Z,0.70
2019-03-04T11:18:47.420Z,2.57
2019-03-04T11:21:17.732Z,1.07
2019-03-04T11:23:49.205Z,0.97
2019-03-04T11:26:22.474Z,0.70
2019-03-04T11:28:54.009Z,1.13
2019-03-04T11:31:24.431Z,1.17
2019-03-04T11:33:54.976Z,1.00
2019-03-04T11:36:28.143Z,0.80
2019-03-04T11:39:10.308Z,1.23
2019-03-04T11:41:40.842Z,1.17
2019-03-04T11:44:12.958Z,1.30
2019-03-04T11:46:44.989Z,1.23
2019-03-04T11:49:16.737Z,1.53
2019-03-04T11:51:48.636Z,0.90
2019-03-04T11:54:20.182Z,1.00
2019-03-04T11:56:51.479Z,1.43
2019-03-04T11:59:21.632Z,1.00
2019-03-04T12:01:53.687Z,1.17
2019-03-04T12:04:25.064Z,0.83
2019-03-04T12:06:55.675Z,0.90
2019-03-04T12:09:26.222Z,0.80
2019-03-04T12:11:56.441Z,1.20
2019-03-04T12:14:27.714Z,1.27
2019-03-04T12:16:58.968Z,0.90
2019-03-04T12:19:32.563Z,0.70
2019-03-04T12:22:04.069Z,0.83
2019-03-04T12:24:34.437Z,0.90
2019-03-04T12:27:05.793Z,1.13
2019-03-04T12:29:36.337Z,0.90
2019-03-04T12:32:28.957Z,1.00
2019-03-04T12:35:00.820Z,1.67
2019-03-04T12:37:32.638Z,1.47
2019-03-04T12:40:04.839Z,0.70
2019-03-04T12:42:35.146Z,0.70
2019-03-04T12:45:08.867Z,0.97
2019-03-04T12:47:40.761Z,1.20
2019-03-04T12:50:15.007Z,1.00
2019-03-04T12:52:45.921Z,0.87
2019-03-04T12:55:16.336Z,1.03
2019-03-04T12:57:48.754Z,0.83
2019-03-04T13:00:20.891Z,0.90
2019-03-04T13:02:57.723Z,0.90
2019-03-04T13:05:24.952Z,1.23
2019-03-04T13:07:55.322Z,0.90
2019-03-04T13:10:27.730Z,0.77
2019-03-04T13:12:59.288Z,1.17
2019-03-04T13:15:29.516Z,1.00
2019-03-04T13:18:02.652Z,1.53
2019-03-04T13:20:34.475Z,1.07
2019-03-04T13:23:07.027Z,0.80
2019-03-04T13:25:37.810Z,1.40
2019-03-04T13:28:08.812Z,1.37
2019-03-04T13:30:41.723Z,1.00
2019-03-04T13:33:12.133Z,0.80
2019-03-04T13:35:42.935Z,0.80
2019-03-04T13:38:13.315Z,0.57
2019-03-04T13:40:43.660Z,0.60
2019-03-04T13:43:20.327Z,0.50
2019-03-04T13:45:51.812Z,0.33
2019-03-04T13:48:22.253Z,0.60
2019-03-04T13:50:52.753Z,0.70
2019-03-04T13:53:23.069Z,0.70
2019-03-04T13:55:55.863Z,0.77
2019-03-04T13:58:26.267Z,0.60
2019-03-04T14:00:58.405Z,1.30
2019-03-04T14:03:29.860Z,0.90
2019-03-04T14:06:00.021Z,0.80
2019-03-04T14:08:30.676Z,0.83
2019-03-04T14:11:03.170Z,0.60
2019-03-04T14:13:33.595Z,0.90
2019-03-04T14:16:04.287Z,0.77
2019-03-04T14:18:34.761Z,0.70
2019-03-04T14:21:05.257Z,1.00
2019-03-04T14:23:35.703Z,0.80
2019-03-04T14:26:05.945Z,1.30
2019-03-04T14:28:36.074Z,0.90
2019-03-04T14:31:06.107Z,1.13
2019-03-04T14:33:37.522Z,1.00
2019-03-04T14:36:07.903Z,1.20
2019-03-04T14:38:38.381Z,1.30
2019-03-04T14:41:08.746Z,1.30
2019-03-04T14:43:38.835Z,1.57
2019-03-04T14:46:20.418Z,1.10
2019-03-04T14:48:50.641Z,1.10
2019-03-04T14:51:21.090Z,1.57
2019-03-04T14:53:51.623Z,1.50
2019-03-04T14:56:23.906Z,1.37
2019-03-04T14:59:09.720Z,1.53
2019-03-04T15:01:26.811Z,1.70
2019-03-04T15:03:57.156Z,1.83
2019-03-04T15:06:27.440Z,1.67
2019-03-04T15:08:58.276Z,2.03
2019-03-04T15:11:28.625Z,2.33
2019-03-04T15:14:00.075Z,1.67
2019-03-04T15:16:32.262Z,1.40
2019-03-04T15:19:02.785Z,2.00
2019-03-04T15:21:34.143Z,2.07
2019-03-04T15:24:06.565Z,2.37
2019-03-04T15:26:43.881Z,1.90
2019-03-04T15:29:10.665Z,1.83
2019-03-04T15:31:41.064Z,2.23
2019-03-04T15:34:11.548Z,2.30
2019-03-04T15:36:41.832Z,2.17
2019-03-04T15:39:22.984Z,2.17
2019-03-04T15:41:50.365Z,1.73
2019-03-04T15:44:23.063Z,2.10
2019-03-04T15:46:53.398Z,1.97
2019-03-04T15:49:25.077Z,2.20
2019-03-04T15:51:55.275Z,2.13
2019-03-04T15:54:27.037Z,2.10
2019-03-04T15:57:03.357Z,1.97
2019-03-04T15:59:34.350Z,1.90
2019-03-04T16:02:08.316Z,1.53
2019-03-04T16:04:40.476Z,2.07
2019-03-04T16:07:12.212Z,2.30
2019-03-04T16:09:44.376Z,2.20
2019-03-04T16:12:18.011Z,1.90
2019-03-04T16:14:49.376Z,1.90
2019-03-04T16:17:19.837Z,2.47
2019-03-04T16:19:50.374Z,2.40
2019-03-04T16:22:20.735Z,1.60
2019-03-04T16:24:52.612Z,2.20
2019-03-04T16:27:25.791Z,1.70
2019-03-04T16:29:59.064Z,2.30
2019-03-04T16:32:30.012Z,1.77
2019-03-04T16:35:00.568Z,1.80
2019-03-04T16:37:32.709Z,2.30
2019-03-04T16:40:03.500Z,2.00
2019-03-04T16:42:35.577Z,2.80
2019-03-04T16:45:07.015Z,2.20
2019-03-04T16:47:39.521Z,3.67
2019-03-04T16:50:11.793Z,2.60
2019-03-04T16:52:43.714Z,2.70
2019-03-04T16:55:15.654Z,2.60
2019-03-04T16:57:46.014Z,2.87
2019-03-04T17:00:18.769Z,2.60
2019-03-04T17:02:50.534Z,3.83
2019-03-04T17:05:22.533Z,2.73
2019-03-04T17:07:53.162Z,2.40
2019-03-04T17:10:23.966Z,2.07
2019-03-04T17:12:55.209Z,2.07
2019-03-04T17:15:25.569Z,3.20
2019-03-04T17:17:56.168Z,2.63
2019-03-04T17:20:26.566Z,1.67
2019-03-04T17:22:59.193Z,2.40
2019-03-04T17:25:29.544Z,3.20
2019-03-04T17:28:01.038Z,2.00
2019-03-04T17:30:32.498Z,2.27
2019-03-04T17:33:02.857Z,1.97
2019-03-04T17:35:33.480Z,1.90
2019-03-04T17:38:05.563Z,2.43
2019-03-04T17:40:35.860Z,2.40
2019-03-04T17:43:06.408Z,2.87
2019-03-04T17:45:36.906Z,2.87
2019-03-04T17:48:07.742Z,2.83
2019-03-04T17:50:40.647Z,3.27
2019-03-04T17:53:14.698Z,2.20
2019-03-04T17:55:46.107Z,2.67
2019-03-04T17:58:16.433Z,3.20
2019-03-04T18:00:51.515Z,2.87
2019-03-04T18:03:24.205Z,2.90
2019-03-04T18:05:56.060Z,2.30
2019-03-04T18:08:26.382Z,3.37
2019-03-04T18:10:56.822Z,3.23
2019-03-04T18:13:27.362Z,3.27
2019-03-04T18:15:58.185Z,2.43
2019-03-04T18:18:28.728Z,2.40
2019-03-04T18:21:02.914Z,2.10
2019-03-04T18:23:33.807Z,2.80
2019-03-04T18:26:14.265Z,2.10
2019-03-04T18:29:53.756Z,2.00
2019-03-04T18:33:40.443Z,2.20
2019-03-04T18:36:59.673Z,2.30
2019-03-04T18:40:37.177Z,1.90
2019-03-04T18:44:11.619Z,2.13
2019-03-04T18:47:32.012Z,2.47
2019-03-04T18:50:02.437Z,2.00
2019-03-04T18:52:34.078Z,2.30
2019-03-04T18:55:05.025Z,2.33
2019-03-04T18:57:37.293Z,2.80
2019-03-04T19:00:14.077Z,2.57
2019-03-04T19:02:52.597Z,3.13
2019-03-04T19:05:25.070Z,2.87
2019-03-04T19:07:56.826Z,2.40
2019-03-04T19:10:28.070Z,2.40
2019-03-04T19:13:01.125Z,2.97
2019-03-04T19:15:31.959Z,2.50
2019-03-04T19:18:02.723Z,3.23
2019-03-04T19:20:34.812Z,3.40
2019-03-04T19:23:05.220Z,2.57
2019-03-04T19:25:36.729Z,2.47
2019-03-04T19:28:07.108Z,3.30
2019-03-04T19:30:39.294Z,2.97
2019-03-04T19:33:09.521Z,3.40
2019-03-04T19:35:40.230Z,2.73
2019-03-04T19:38:10.845Z,3.20
2019-03-04T19:40:41.434Z,3.93
2019-03-04T19:43:11.846Z,4.47
2019-03-04T19:45:43.016Z,3.27
2019-03-04T19:48:15.452Z,3.50
2019-03-04T19:50:46.604Z,2.93
2019-03-04T19:53:17.641Z,2.90
2019-03-04T19:55:48.490Z,2.33
2019-03-04T19:58:19.502Z,2.77
2019-03-04T20:00:52.338Z,2.70
2019-03-04T20:03:22.850Z,2.50
2019-03-04T20:05:54.272Z,2.53
2019-03-04T20:08:24.970Z,3.10
2019-03-04T20:10:58.806Z,2.97
2019-03-04T20:13:31.569Z,2.93
2019-03-04T20:16:05.600Z,2.57
2019-03-04T20:18:38.510Z,2.93
2019-03-04T20:21:09.716Z,3.43
2019-03-04T20:23:40.342Z,2.70
2019-03-04T20:26:13.234Z,2.80
2019-03-04T20:28:44.765Z,3.10
2019-03-04T20:31:16.756Z,3.40
2019-03-04T20:33:47.711Z,3.60
2019-03-04T20:36:19.868Z,3.27
2019-03-04T20:38:50.953Z,2.73
2019-03-04T20:41:21.575Z,3.17
2019-03-04T20:43:55.300Z,3.50
2019-03-04T20:46:25.895Z,3.23
2019-03-04T20:48:56.282Z,2.97
2019-03-04T20:51:26.901Z,3.03
2019-03-04T20:53:57.556Z,3.43
2019-03-04T20:56:27.985Z,3.87
2019-03-04T20:58:59.212Z,3.73
2019-03-04T21:01:29.913Z,3.47
2019-03-04T21:04:01.984Z,3.43
2019-03-04T21:06:33.489Z,3.00
2019-03-04T21:09:06.163Z,3.43
2019-03-04T21:11:36.577Z,3.10
2019-03-04T21:14:07.219Z,3.43
2019-03-04T21:16:38.051Z,3.37
2019-03-04T21:19:10.702Z,3.13
2019-03-04T21:21:41.362Z,3.20
2019-03-04T21:24:11.751Z,3.40
2019-03-04T21:26:49.005Z,2.63
2019-03-04T21:30:07.893Z,2.90
2019-03-04T21:33:07.179Z,3.00
2019-03-04T21:36:36.785Z,3.10
2019-03-04T21:39:07.677Z,2.60
2019-03-04T21:41:59.909Z,2.33
2019-03-04T21:45:33.637Z,2.70
2019-03-04T21:48:37.596Z,2.73
2019-03-04T21:51:41.498Z,1.90
2019-03-04T21:54:13.726Z,2.37
2019-03-04T21:57:32.086Z,2.57
2019-03-04T22:00:04.229Z,2.67
2019-03-04T22:02:52.210Z,2.93
2019-03-04T22:05:24.482Z,3.13
2019-03-04T22:07:54.651Z,3.40
2019-03-04T22:10:24.743Z,3.50
2019-03-04T22:12:57.206Z,2.70
2019-03-04T22:15:27.532Z,3.40
2019-03-04T22:17:59.088Z,3.20
2019-03-04T22:20:29.507Z,4.03
2019-03-04T22:23:00.154Z,3.70
2019-03-04T22:25:30.889Z,4.17
2019-03-04T22:28:01.900Z,4.40
2019-03-04T22:30:34.656Z,3.70
2019-03-04T22:33:06.405Z,3.53
2019-03-04T22:35:36.897Z,3.97
2019-03-04T22:38:07.641Z,3.67
2019-03-04T22:40:37.981Z,3.80
2019-03-04T22:43:08.515Z,3.57
2019-03-04T22:45:41.207Z,3.20
2019-03-04T22:48:11.610Z,3.27
2019-03-04T22:50:42.199Z,2.80
2019-03-04T22:53:12.557Z,3.60
2019-03-04T22:55:44.903Z,3.60
2019-03-04T22:58:27.814Z,2.90
2019-03-04T23:01:38.438Z,3.20
2019-03-04T23:04:23.988Z,2.90
2019-03-04T23:07:35.573Z,2.50
2019-03-04T23:10:37.351Z,3.40
2019-03-04T23:14:00.845Z,2.83
2019-03-04T23:16:33.423Z,2.93
2019-03-04T23:19:09.688Z,2.97
2019-03-04T23:21:42.885Z,3.33
2019-03-04T23:24:13.108Z,2.47
2019-03-04T23:26:43.566Z,3.30
2019-03-04T23:29:17.456Z,2.53
2019-03-04T23:31:49.543Z,2.80
2019-03-04T23:34:19.864Z,2.73
2019-03-04T23:36:51.335Z,2.30
2019-03-04T23:39:22.856Z,2.50
2019-03-04T23:41:54.666Z,2.33
2019-03-04T23:44:25.971Z,2.30
2019-03-04T23:46:57.882Z,2.60
2019-03-04T23:49:30.067Z,3.13
2019-03-04T23:52:03.300Z,2.00
2019-03-04T23:54:33.787Z,2.50
2019-03-04T23:57:03.957Z,2.53
2019-03-04T23:59:34.878Z,3.10
